This is the latest recevied weather packets stored in our database for station/object N3TTT-13. If no packets are shown the sender has not sent any weather packets the latest 1 day(s).
| Time | Temp. | Humidity | Pressure | Rain* | Wind** | Luminosity | Snow |
|---|---|---|---|---|---|---|---|
| 1778032519 | 21.11° C | 67% | 1011.9 hPa | 0 mm | - | 0 W/m² | - |
| 1778032216 | 21.11° C | 66% | 1011.9 hPa | 0 mm | - | 0 W/m² | - |
| 1778031004 | 21.67° C | 64% | 1011.8 hPa | 0 mm | - | 0 W/m² | - |
| 1778030700 | 21.67° C | 63% | 1011.5 hPa | 0 mm | - | 0 W/m² | - |
| 1778030397 | 22.22° C | 63% | 1011.4 hPa | 0 mm | - | 0 W/m² | - |
| 1778029790 | 22.22° C | 62% | 1011.4 hPa | 0 mm | - | 0 W/m² | - |
| 1778029490 | 22.22° C | 61% | 1011.1 hPa | 0 mm | - | 0 W/m² | - |
| 1778029185 | 22.22° C | 60% | 1011.1 hPa | 0 mm | - | 0 W/m² | - |
| 1778028884 | 22.22° C | 60% | 1011.1 hPa | 0 mm | - | 0 W/m² | - |
| 1778028277 | 22.78° C | 58% | 1011.1 hPa | 0 mm | - | 0 W/m² | - |
| 1778027972 | 22.78° C | 57% | 1011.1 hPa | 0 mm | - | 0 W/m² | - |
| 1778027366 | 22.78° C | 57% | 1010.9 hPa | 0 mm | - | 0 W/m² | - |
| 1778027062 | 22.78° C | 57% | 1010.9 hPa | 0 mm | - | 0 W/m² | - |
| 1778026455 | 23.33° C | 55% | 1010.9 hPa | 0 mm | - | 0 W/m² | - |
| 1778026152 | 23.33° C | 55% | 1010.7 hPa | 0 mm | - | 0 W/m² | - |
| 1778024033 | 24.44° C | 51% | 1010.7 hPa | 0 mm | - | 11 W/m² | - |
| 1778023730 | 23.89° C | 52% | 1010.8 hPa | 0 mm | - | 14 W/m² | - |
| 1778023428 | 23.89° C | 50% | 1010.8 hPa | 0 mm | - | 17 W/m² | - |
| 1778023124 | 23.89° C | 51% | 1010.7 hPa | 0 mm | - | 21 W/m² | - |
| 1778021004 | 25° C | 46% | 1010.8 hPa | 0 mm | - | 27 W/m² | - |
| 1778020398 | 25.56° C | 45% | 1011 hPa | 0 mm | - | 38 W/m² | - |
| 1778019487 | 25.56° C | 45% | 1010.9 hPa | 0 mm | - | 32 W/m² | - |
* Rain latest hour (hover to see other rain measurements)
** Current wind speed in m/s (hover to see current wind gust speed)